sensor_id;sensor_type;location;lat;lon;timestamp;temperature;humidity
67750;DHT22;54550;48.838;8.828;2023-02-01T00:01:48;3.10;99.90
67750;DHT22;54550;48.838;8.828;2023-02-01T00:04:14;3.00;99.90
67750;DHT22;54550;48.838;8.828;2023-02-01T00:06:40;3.10;99.90
67750;DHT22;54550;48.838;8.828;2023-02-01T00:09:05;3.10;99.90
67750;DHT22;54550;48.838;8.828;2023-02-01T00:11:31;3.20;99.90
67750;DHT22;54550;48.838;8.828;2023-02-01T00:13:57;3.10;99.90
67750;DHT22;54550;48.838;8.828;2023-02-01T00:16:28;3.10;99.90
67750;DHT22;54550;48.838;8.828;2023-02-01T00:19:07;3.10;99.90
67750;DHT22;54550;48.838;8.828;2023-02-01T00:21:33;3.10;99.90
67750;DHT22;54550;48.838;8.828;2023-02-01T00:23:59;3.20;99.90
67750;DHT22;54550;48.838;8.828;2023-02-01T00:26:33;3.20;99.90
67750;DHT22;54550;48.838;8.828;2023-02-01T00:29:00;3.20;99.90
67750;DHT22;54550;48.838;8.828;2023-02-01T00:31:26;3.20;99.90
67750;DHT22;54550;48.838;8.828;2023-02-01T00:33:51;3.20;99.90
67750;DHT22;54550;48.838;8.828;2023-02-01T00:36:17;3.20;99.90
67750;DHT22;54550;48.838;8.828;2023-02-01T00:38:44;3.20;99.90
67750;DHT22;54550;48.838;8.828;2023-02-01T00:41:15;3.10;99.90
67750;DHT22;54550;48.838;8.828;2023-02-01T00:43:42;3.20;99.90
67750;DHT22;54550;48.838;8.828;2023-02-01T00:46:08;3.20;99.90
67750;DHT22;54550;48.838;8.828;2023-02-01T00:48:34;3.20;99.90
67750;DHT22;54550;48.838;8.828;2023-02-01T00:51:01;3.50;99.90
67750;DHT22;54550;48.838;8.828;2023-02-01T00:53:27;3.20;99.90
67750;DHT22;54550;48.838;8.828;2023-02-01T00:55:52;3.20;99.90
67750;DHT22;54550;48.838;8.828;2023-02-01T00:58:18;3.30;99.90
67750;DHT22;54550;48.838;8.828;2023-02-01T01:00:44;3.30;99.90
67750;DHT22;54550;48.838;8.828;2023-02-01T01:03:09;3.30;99.90
67750;DHT22;54550;48.838;8.828;2023-02-01T01:05:45;3.30;99.90
67750;DHT22;54550;48.838;8.828;2023-02-01T01:08:11;3.30;99.90
67750;DHT22;54550;48.838;8.828;2023-02-01T01:10:36;3.30;99.90
67750;DHT22;54550;48.838;8.828;2023-02-01T01:13:02;3.30;99.90
67750;DHT22;54550;48.838;8.828;2023-02-01T01:15:27;3.30;99.90
67750;DHT22;54550;48.838;8.828;2023-02-01T01:17:53;3.30;99.90
67750;DHT22;54550;48.838;8.828;2023-02-01T01:20:19;3.30;99.90
67750;DHT22;54550;48.838;8.828;2023-02-01T01:22:47;3.30;99.90
67750;DHT22;54550;48.838;8.828;2023-02-01T01:25:13;3.30;99.90
67750;DHT22;54550;48.838;8.828;2023-02-01T01:27:39;3.40;99.90
67750;DHT22;54550;48.838;8.828;2023-02-01T01:30:05;3.30;99.90
67750;DHT22;54550;48.838;8.828;2023-02-01T01:32:30;3.40;99.90
67750;DHT22;54550;48.838;8.828;2023-02-01T01:34:56;3.40;99.90
67750;DHT22;54550;48.838;8.828;2023-02-01T01:37:21;3.40;99.90
67750;DHT22;54550;48.838;8.828;2023-02-01T01:39:47;3.40;99.90
67750;DHT22;54550;48.838;8.828;2023-02-01T01:42:13;3.40;99.90
67750;DHT22;54550;48.838;8.828;2023-02-01T01:47:23;3.50;99.90
67750;DHT22;54550;48.838;8.828;2023-02-01T01:49:49;3.50;99.90
67750;DHT22;54550;48.838;8.828;2023-02-01T01:52:15;3.50;99.90
67750;DHT22;54550;48.838;8.828;2023-02-01T01:54:44;3.50;99.90
67750;DHT22;54550;48.838;8.828;2023-02-01T01:57:56;3.50;99.90
67750;DHT22;54550;48.838;8.828;2023-02-01T02:00:15;3.50;99.90
67750;DHT22;54550;48.838;8.828;2023-02-01T02:02:46;3.50;99.90
67750;DHT22;54550;48.838;8.828;2023-02-01T02:05:13;3.50;99.90
67750;DHT22;54550;48.838;8.828;2023-02-01T02:07:43;3.50;99.90
67750;DHT22;54550;48.838;8.828;2023-02-01T02:10:11;3.50;99.90
67750;DHT22;54550;48.838;8.828;2023-02-01T02:12:42;3.50;99.90
67750;DHT22;54550;48.838;8.828;2023-02-01T02:15:10;3.50;99.90
67750;DHT22;54550;48.838;8.828;2023-02-01T02:23:03;3.50;99.90
67750;DHT22;54550;48.838;8.828;2023-02-01T02:31:10;3.50;99.90
67750;DHT22;54550;48.838;8.828;2023-02-01T02:39:41;3.50;99.90
67750;DHT22;54550;48.838;8.828;2023-02-01T02:42:27;3.50;99.90
67750;DHT22;54550;48.838;8.828;2023-02-01T02:45:20;3.50;99.90
67750;DHT22;54550;48.838;8.828;2023-02-01T02:48:30;3.60;99.90
67750;DHT22;54550;48.838;8.828;2023-02-01T02:51:15;3.60;99.90
67750;DHT22;54550;48.838;8.828;2023-02-01T02:54:10;3.50;99.90
67750;DHT22;54550;48.838;8.828;2023-02-01T02:56:58;3.50;99.90
67750;DHT22;54550;48.838;8.828;2023-02-01T02:59:44;3.50;99.90
67750;DHT22;54550;48.838;8.828;2023-02-01T03:02:29;3.50;99.90
67750;DHT22;54550;48.838;8.828;2023-02-01T03:05:14;3.60;99.90
67750;DHT22;54550;48.838;8.828;2023-02-01T03:16:24;3.60;99.90
67750;DHT22;54550;48.838;8.828;2023-02-01T03:21:34;3.50;99.90
67750;DHT22;54550;48.838;8.828;2023-02-01T03:24:37;3.50;99.90
67750;DHT22;54550;48.838;8.828;2023-02-01T03:27:32;3.50;99.90
67750;DHT22;54550;48.838;8.828;2023-02-01T03:30:08;3.50;99.90
67750;DHT22;54550;48.838;8.828;2023-02-01T03:32:36;3.50;99.90
67750;DHT22;54550;48.838;8.828;2023-02-01T03:35:28;3.50;99.90
67750;DHT22;54550;48.838;8.828;2023-02-01T03:37:59;3.50;99.90
67750;DHT22;54550;48.838;8.828;2023-02-01T03:40:27;3.50;99.90
67750;DHT22;54550;48.838;8.828;2023-02-01T03:42:59;3.50;99.90
67750;DHT22;54550;48.838;8.828;2023-02-01T03:45:31;3.50;99.90
67750;DHT22;54550;48.838;8.828;2023-02-01T03:48:00;3.50;99.90
67750;DHT22;54550;48.838;8.828;2023-02-01T03:50:27;3.50;99.90
67750;DHT22;54550;48.838;8.828;2023-02-01T03:53:07;3.40;99.90
67750;DHT22;54550;48.838;8.828;2023-02-01T03:55:35;3.40;99.90
67750;DHT22;54550;48.838;8.828;2023-02-01T03:58:12;3.40;99.90
67750;DHT22;54550;48.838;8.828;2023-02-01T04:00:38;3.50;99.90
67750;DHT22;54550;48.838;8.828;2023-02-01T04:03:05;3.50;99.90
67750;DHT22;54550;48.838;8.828;2023-02-01T04:05:31;3.50;99.90
67750;DHT22;54550;48.838;8.828;2023-02-01T04:07:57;3.50;99.90
67750;DHT22;54550;48.838;8.828;2023-02-01T04:10:22;3.60;99.90
67750;DHT22;54550;48.838;8.828;2023-02-01T04:12:48;3.60;99.90
67750;DHT22;54550;48.838;8.828;2023-02-01T04:15:14;3.60;99.90
67750;DHT22;54550;48.838;8.828;2023-02-01T04:17:39;3.60;99.90
67750;DHT22;54550;48.838;8.828;2023-02-01T04:20:05;3.70;99.90
67750;DHT22;54550;48.838;8.828;2023-02-01T04:22:31;3.70;99.90
67750;DHT22;54550;48.838;8.828;2023-02-01T04:24:57;3.70;99.90
67750;DHT22;54550;48.838;8.828;2023-02-01T04:27:22;3.60;99.90
67750;DHT22;54550;48.838;8.828;2023-02-01T04:29:48;3.60;99.90
67750;DHT22;54550;48.838;8.828;2023-02-01T04:32:17;3.60;99.90
67750;DHT22;54550;48.838;8.828;2023-02-01T04:34:43;3.60;99.90
67750;DHT22;54550;48.838;8.828;2023-02-01T04:37:08;3.60;99.90
67750;DHT22;54550;48.838;8.828;2023-02-01T04:39:34;3.70;99.90
67750;DHT22;54550;48.838;8.828;2023-02-01T04:42:00;3.70;99.90
67750;DHT22;54550;48.838;8.828;2023-02-01T04:44:25;3.70;99.90
67750;DHT22;54550;48.838;8.828;2023-02-01T04:46:51;3.70;99.90
67750;DHT22;54550;48.838;8.828;2023-02-01T04:49:16;3.60;99.90
67750;DHT22;54550;48.838;8.828;2023-02-01T04:51:42;3.50;99.90
67750;DHT22;54550;48.838;8.828;2023-02-01T04:54:08;3.50;99.90
67750;DHT22;54550;48.838;8.828;2023-02-01T04:56:36;3.50;99.90
67750;DHT22;54550;48.838;8.828;2023-02-01T04:59:02;3.50;99.90
67750;DHT22;54550;48.838;8.828;2023-02-01T05:01:28;3.60;99.90
67750;DHT22;54550;48.838;8.828;2023-02-01T05:03:54;3.50;99.90
67750;DHT22;54550;48.838;8.828;2023-02-01T05:06:20;3.50;99.90
67750;DHT22;54550;48.838;8.828;2023-02-01T05:08:46;3.60;99.90
67750;DHT22;54550;48.838;8.828;2023-02-01T05:11:11;3.60;99.90
67750;DHT22;54550;48.838;8.828;2023-02-01T05:13:58;3.70;99.90
67750;DHT22;54550;48.838;8.828;2023-02-01T05:16:24;3.90;99.90
67750;DHT22;54550;48.838;8.828;2023-02-01T05:18:49;3.60;99.90
67750;DHT22;54550;48.838;8.828;2023-02-01T05:21:15;3.60;99.90
67750;DHT22;54550;48.838;8.828;2023-02-01T05:23:40;3.60;99.90
67750;DHT22;54550;48.838;8.828;2023-02-01T05:26:25;3.50;99.90
67750;DHT22;54550;48.838;8.828;2023-02-01T05:28:50;3.50;99.90
67750;DHT22;54550;48.838;8.828;2023-02-01T05:31:16;3.50;99.90
67750;DHT22;54550;48.838;8.828;2023-02-01T05:33:42;3.50;99.90
67750;DHT22;54550;48.838;8.828;2023-02-01T05:36:08;3.50;99.90
67750;DHT22;54550;48.838;8.828;2023-02-01T05:38:33;3.50;99.90
67750;DHT22;54550;48.838;8.828;2023-02-01T05:40:59;3.40;99.90
67750;DHT22;54550;48.838;8.828;2023-02-01T05:43:24;3.20;99.90
67750;DHT22;54550;48.838;8.828;2023-02-01T05:45:52;3.20;99.90
67750;DHT22;54550;48.838;8.828;2023-02-01T05:48:18;3.20;99.90
67750;DHT22;54550;48.838;8.828;2023-02-01T05:50:44;3.10;99.90
67750;DHT22;54550;48.838;8.828;2023-02-01T05:53:10;3.10;99.90
67750;DHT22;54550;48.838;8.828;2023-02-01T05:55:36;3.10;99.90
67750;DHT22;54550;48.838;8.828;2023-02-01T05:58:02;3.10;99.90
67750;DHT22;54550;48.838;8.828;2023-02-01T06:00:27;3.10;99.90
67750;DHT22;54550;48.838;8.828;2023-02-01T06:02:53;3.20;99.90
67750;DHT22;54550;48.838;8.828;2023-02-01T06:05:19;3.20;99.90
67750;DHT22;54550;48.838;8.828;2023-02-01T06:07:44;3.20;99.90
67750;DHT22;54550;48.838;8.828;2023-02-01T06:10:10;3.20;99.90
67750;DHT22;54550;48.838;8.828;2023-02-01T06:12:36;3.20;99.90
67750;DHT22;54550;48.838;8.828;2023-02-01T06:15:01;3.30;99.90
67750;DHT22;54550;48.838;8.828;2023-02-01T06:17:27;3.30;99.90
67750;DHT22;54550;48.838;8.828;2023-02-01T06:19:52;3.30;99.90
67750;DHT22;54550;48.838;8.828;2023-02-01T06:22:18;3.30;99.90
67750;DHT22;54550;48.838;8.828;2023-02-01T06:24:43;3.30;99.90
67750;DHT22;54550;48.838;8.828;2023-02-01T06:27:09;3.40;99.90
67750;DHT22;54550;48.838;8.828;2023-02-01T06:29:35;3.30;99.90
67750;DHT22;54550;48.838;8.828;2023-02-01T06:32:01;3.40;99.90
67750;DHT22;54550;48.838;8.828;2023-02-01T06:34:26;3.40;99.90
67750;DHT22;54550;48.838;8.828;2023-02-01T06:36:52;3.40;99.90
67750;DHT22;54550;48.838;8.828;2023-02-01T06:39:17;3.40;99.90
67750;DHT22;54550;48.838;8.828;2023-02-01T06:41:47;3.50;99.90
67750;DHT22;54550;48.838;8.828;2023-02-01T06:44:13;3.40;99.90
67750;DHT22;54550;48.838;8.828;2023-02-01T06:46:38;3.40;99.90
67750;DHT22;54550;48.838;8.828;2023-02-01T06:49:04;3.40;99.90
67750;DHT22;54550;48.838;8.828;2023-02-01T06:51:29;3.50;99.90
67750;DHT22;54550;48.838;8.828;2023-02-01T06:53:55;3.50;99.90
67750;DHT22;54550;48.838;8.828;2023-02-01T06:56:21;3.40;99.90
67750;DHT22;54550;48.838;8.828;2023-02-01T06:58:47;3.50;99.90
67750;DHT22;54550;48.838;8.828;2023-02-01T07:01:14;3.50;99.90
67750;DHT22;54550;48.838;8.828;2023-02-01T07:03:40;3.50;99.90
67750;DHT22;54550;48.838;8.828;2023-02-01T07:06:07;3.50;99.90
67750;DHT22;54550;48.838;8.828;2023-02-01T07:08:34;3.50;99.90
67750;DHT22;54550;48.838;8.828;2023-02-01T07:11:05;3.50;99.90
67750;DHT22;54550;48.838;8.828;2023-02-01T07:13:31;3.60;99.90
67750;DHT22;54550;48.838;8.828;2023-02-01T07:16:04;3.60;99.90
67750;DHT22;54550;48.838;8.828;2023-02-01T07:18:30;3.60;99.90
67750;DHT22;54550;48.838;8.828;2023-02-01T07:20:56;3.60;99.90
67750;DHT22;54550;48.838;8.828;2023-02-01T07:23:23;3.60;99.90
67750;DHT22;54550;48.838;8.828;2023-02-01T07:25:53;3.80;99.90
67750;DHT22;54550;48.838;8.828;2023-02-01T07:28:18;3.70;99.90
67750;DHT22;54550;48.838;8.828;2023-02-01T07:30:44;3.70;99.90
67750;DHT22;54550;48.838;8.828;2023-02-01T07:33:22;3.70;99.90
67750;DHT22;54550;48.838;8.828;2023-02-01T07:35:49;3.80;99.90
67750;DHT22;54550;48.838;8.828;2023-02-01T07:38:15;3.80;99.90
67750;DHT22;54550;48.838;8.828;2023-02-01T07:40:41;3.80;99.90
67750;DHT22;54550;48.838;8.828;2023-02-01T07:43:07;3.90;99.90
67750;DHT22;54550;48.838;8.828;2023-02-01T07:45:33;3.90;99.90
67750;DHT22;54550;48.838;8.828;2023-02-01T07:47:59;4.10;99.90
67750;DHT22;54550;48.838;8.828;2023-02-01T07:50:25;4.00;99.90
67750;DHT22;54550;48.838;8.828;2023-02-01T07:52:50;4.00;99.90
67750;DHT22;54550;48.838;8.828;2023-02-01T07:55:16;4.00;99.90
67750;DHT22;54550;48.838;8.828;2023-02-01T07:57:41;3.90;99.90
67750;DHT22;54550;48.838;8.828;2023-02-01T08:00:08;3.90;99.90
67750;DHT22;54550;48.838;8.828;2023-02-01T08:02:52;3.80;99.90
67750;DHT22;54550;48.838;8.828;2023-02-01T08:05:17;3.80;99.90
67750;DHT22;54550;48.838;8.828;2023-02-01T08:07:43;3.80;99.90
67750;DHT22;54550;48.838;8.828;2023-02-01T08:10:09;3.90;99.90
67750;DHT22;54550;48.838;8.828;2023-02-01T08:12:36;3.90;99.90
67750;DHT22;54550;48.838;8.828;2023-02-01T08:15:03;3.80;99.90
67750;DHT22;54550;48.838;8.828;2023-02-01T08:17:29;3.80;99.90
67750;DHT22;54550;48.838;8.828;2023-02-01T08:19:55;3.80;99.90
67750;DHT22;54550;48.838;8.828;2023-02-01T08:22:21;3.80;99.90
67750;DHT22;54550;48.838;8.828;2023-02-01T08:24:48;3.90;99.90
67750;DHT22;54550;48.838;8.828;2023-02-01T08:27:14;4.00;99.90
67750;DHT22;54550;48.838;8.828;2023-02-01T08:29:39;4.10;99.90
67750;DHT22;54550;48.838;8.828;2023-02-01T08:32:05;4.20;99.90
67750;DHT22;54550;48.838;8.828;2023-02-01T08:34:30;4.70;99.90
67750;DHT22;54550;48.838;8.828;2023-02-01T08:36:56;4.50;99.90
67750;DHT22;54550;48.838;8.828;2023-02-01T08:39:25;4.50;99.90
67750;DHT22;54550;48.838;8.828;2023-02-01T08:41:51;4.70;99.90
67750;DHT22;54550;48.838;8.828;2023-02-01T08:44:35;4.70;99.90
67750;DHT22;54550;48.838;8.828;2023-02-01T08:47:02;4.60;99.90
67750;DHT22;54550;48.838;8.828;2023-02-01T08:49:28;4.80;99.90
67750;DHT22;54550;48.838;8.828;2023-02-01T08:51:54;4.70;99.90
67750;DHT22;54550;48.838;8.828;2023-02-01T08:54:20;4.60;99.90
67750;DHT22;54550;48.838;8.828;2023-02-01T08:56:46;4.50;99.90
67750;DHT22;54550;48.838;8.828;2023-02-01T08:59:12;4.40;99.90
67750;DHT22;54550;48.838;8.828;2023-02-01T09:01:37;4.40;99.90
67750;DHT22;54550;48.838;8.828;2023-02-01T09:04:03;4.30;99.90
67750;DHT22;54550;48.838;8.828;2023-02-01T09:06:28;4.40;99.90
67750;DHT22;54550;48.838;8.828;2023-02-01T09:08:54;4.30;99.90
67750;DHT22;54550;48.838;8.828;2023-02-01T09:11:20;4.40;99.90
67750;DHT22;54550;48.838;8.828;2023-02-01T09:13:46;4.50;99.90
67750;DHT22;54550;48.838;8.828;2023-02-01T09:16:12;4.40;99.90
67750;DHT22;54550;48.838;8.828;2023-02-01T09:18:38;4.30;99.90
67750;DHT22;54550;48.838;8.828;2023-02-01T09:21:07;4.40;99.90
67750;DHT22;54550;48.838;8.828;2023-02-01T09:23:34;4.50;99.90
67750;DHT22;54550;48.838;8.828;2023-02-01T09:26:00;4.60;99.90
67750;DHT22;54550;48.838;8.828;2023-02-01T09:28:26;4.70;99.90
67750;DHT22;54550;48.838;8.828;2023-02-01T09:30:56;5.20;99.90
67750;DHT22;54550;48.838;8.828;2023-02-01T09:33:23;5.40;99.90
67750;DHT22;54550;48.838;8.828;2023-02-01T09:36:03;5.30;99.90
67750;DHT22;54550;48.838;8.828;2023-02-01T09:38:29;5.50;99.90
67750;DHT22;54550;48.838;8.828;2023-02-01T09:40:55;5.50;99.90
67750;DHT22;54550;48.838;8.828;2023-02-01T09:48:38;5.30;99.90
67750;DHT22;54550;48.838;8.828;2023-02-01T09:51:19;5.20;99.90
67750;DHT22;54550;48.838;8.828;2023-02-01T09:53:52;5.10;99.90
67750;DHT22;54550;48.838;8.828;2023-02-01T09:56:26;4.90;99.90
67750;DHT22;54550;48.838;8.828;2023-02-01T10:01:22;4.70;99.90
67750;DHT22;54550;48.838;8.828;2023-02-01T10:03:49;4.80;99.90
67750;DHT22;54550;48.838;8.828;2023-02-01T10:09:14;5.70;99.90
67750;DHT22;54550;48.838;8.828;2023-02-01T10:25:35;5.20;99.90
67750;DHT22;54550;48.838;8.828;2023-02-01T10:28:03;5.20;99.90
67750;DHT22;54550;48.838;8.828;2023-02-01T10:30:43;5.20;99.90
67750;DHT22;54550;48.838;8.828;2023-02-01T10:33:18;5.10;99.90
67750;DHT22;54550;48.838;8.828;2023-02-01T10:35:45;4.90;99.90
67750;DHT22;54550;48.838;8.828;2023-02-01T10:38:41;4.90;99.90
67750;DHT22;54550;48.838;8.828;2023-02-01T10:41:31;4.90;99.90
67750;DHT22;54550;48.838;8.828;2023-02-01T10:43:59;4.70;99.90
67750;DHT22;54550;48.838;8.828;2023-02-01T10:46:26;4.70;99.90
67750;DHT22;54550;48.838;8.828;2023-02-01T10:48:56;4.70;99.90
67750;DHT22;54550;48.838;8.828;2023-02-01T10:51:29;4.60;99.90
67750;DHT22;54550;48.838;8.828;2023-02-01T10:54:11;4.70;99.90
67750;DHT22;54550;48.838;8.828;2023-02-01T10:56:39;4.70;99.90
67750;DHT22;54550;48.838;8.828;2023-02-01T10:59:11;4.80;99.90
67750;DHT22;54550;48.838;8.828;2023-02-01T11:01:41;4.80;99.90
67750;DHT22;54550;48.838;8.828;2023-02-01T11:04:17;4.90;99.90
67750;DHT22;54550;48.838;8.828;2023-02-01T11:06:53;4.90;99.90
67750;DHT22;54550;48.838;8.828;2023-02-01T11:09:31;5.00;99.90
67750;DHT22;54550;48.838;8.828;2023-02-01T11:11:58;5.10;99.90
67750;DHT22;54550;48.838;8.828;2023-02-01T11:19:43;5.40;99.90
67750;DHT22;54550;48.838;8.828;2023-02-01T11:22:09;5.50;99.90
67750;DHT22;54550;48.838;8.828;2023-02-01T11:24:37;5.70;99.90
67750;DHT22;54550;48.838;8.828;2023-02-01T11:27:11;5.70;99.90
67750;DHT22;54550;48.838;8.828;2023-02-01T11:29:47;5.60;99.90
67750;DHT22;54550;48.838;8.828;2023-02-01T11:32:16;5.40;99.90
67750;DHT22;54550;48.838;8.828;2023-02-01T11:34:57;5.40;99.90
67750;DHT22;54550;48.838;8.828;2023-02-01T11:37:28;5.50;99.90
67750;DHT22;54550;48.838;8.828;2023-02-01T11:40:00;5.70;99.90
67750;DHT22;54550;48.838;8.828;2023-02-01T11:42:27;5.80;99.90
67750;DHT22;54550;48.838;8.828;2023-02-01T11:45:32;5.70;99.90
67750;DHT22;54550;48.838;8.828;2023-02-01T11:48:09;5.50;99.90
67750;DHT22;54550;48.838;8.828;2023-02-01T11:53:57;5.40;99.90
67750;DHT22;54550;48.838;8.828;2023-02-01T11:59:35;5.30;99.90
67750;DHT22;54550;48.838;8.828;2023-02-01T12:10:40;5.80;99.90
67750;DHT22;54550;48.838;8.828;2023-02-01T12:21:30;5.00;99.90
67750;DHT22;54550;48.838;8.828;2023-02-01T12:27:10;5.00;99.90
67750;DHT22;54550;48.838;8.828;2023-02-01T12:33:14;5.10;99.90
67750;DHT22;54550;48.838;8.828;2023-02-01T12:36:01;5.10;99.90
67750;DHT22;54550;48.838;8.828;2023-02-01T12:41:27;4.80;99.90
67750;DHT22;54550;48.838;8.828;2023-02-01T12:44:00;4.70;99.90
67750;DHT22;54550;48.838;8.828;2023-02-01T12:46:31;4.70;99.90
67750;DHT22;54550;48.838;8.828;2023-02-01T12:49:16;4.70;99.90
67750;DHT22;54550;48.838;8.828;2023-02-01T12:51:46;4.70;99.90
67750;DHT22;54550;48.838;8.828;2023-02-01T12:54:23;4.80;99.90
67750;DHT22;54550;48.838;8.828;2023-02-01T12:57:00;5.00;99.90
67750;DHT22;54550;48.838;8.828;2023-02-01T13:02:01;5.40;99.90
67750;DHT22;54550;48.838;8.828;2023-02-01T13:04:37;5.50;99.90
67750;DHT22;54550;48.838;8.828;2023-02-01T13:07:16;5.30;99.90
67750;DHT22;54550;48.838;8.828;2023-02-01T13:14:57;5.20;99.90
67750;DHT22;54550;48.838;8.828;2023-02-01T13:17:29;5.30;99.90
67750;DHT22;54550;48.838;8.828;2023-02-01T13:22:38;5.30;99.90
67750;DHT22;54550;48.838;8.828;2023-02-01T13:27:46;4.90;99.90
67750;DHT22;54550;48.838;8.828;2023-02-01T13:30:23;4.70;99.90
67750;DHT22;54550;48.838;8.828;2023-02-01T13:33:01;4.50;99.90
67750;DHT22;54550;48.838;8.828;2023-02-01T13:38:24;4.90;99.90
67750;DHT22;54550;48.838;8.828;2023-02-01T13:43:51;4.70;99.90
67750;DHT22;54550;48.838;8.828;2023-02-01T13:46:18;4.60;99.90
67750;DHT22;54550;48.838;8.828;2023-02-01T13:48:53;4.50;99.90
67750;DHT22;54550;48.838;8.828;2023-02-01T13:51:41;4.40;99.90
67750;DHT22;54550;48.838;8.828;2023-02-01T13:54:07;4.60;99.90
67750;DHT22;54550;48.838;8.828;2023-02-01T13:56:48;5.20;99.90
67750;DHT22;54550;48.838;8.828;2023-02-01T14:05:12;5.80;99.90
67750;DHT22;54550;48.838;8.828;2023-02-01T14:10:58;5.00;99.90
67750;DHT22;54550;48.838;8.828;2023-02-01T14:13:36;5.20;99.90
67750;DHT22;54550;48.838;8.828;2023-02-01T14:21:31;5.40;99.90
67750;DHT22;54550;48.838;8.828;2023-02-01T14:26:44;5.10;99.90
67750;DHT22;54550;48.838;8.828;2023-02-01T14:32:00;4.80;99.90
67750;DHT22;54550;48.838;8.828;2023-02-01T14:34:40;4.70;99.90
67750;DHT22;54550;48.838;8.828;2023-02-01T14:42:26;4.60;99.90
67750;DHT22;54550;48.838;8.828;2023-02-01T14:44:55;4.60;99.90
67750;DHT22;54550;48.838;8.828;2023-02-01T14:52:29;4.70;99.90
67750;DHT22;54550;48.838;8.828;2023-02-01T14:54:59;4.70;99.90
67750;DHT22;54550;48.838;8.828;2023-02-01T14:57:27;4.80;99.90
67750;DHT22;54550;48.838;8.828;2023-02-01T15:00:07;4.80;99.90
67750;DHT22;54550;48.838;8.828;2023-02-01T15:02:35;4.80;99.90
67750;DHT22;54550;48.838;8.828;2023-02-01T15:05:01;4.70;99.90
67750;DHT22;54550;48.838;8.828;2023-02-01T15:07:28;4.90;99.90
67750;DHT22;54550;48.838;8.828;2023-02-01T15:09:57;5.00;99.90
67750;DHT22;54550;48.838;8.828;2023-02-01T15:12:25;5.10;99.90
67750;DHT22;54550;48.838;8.828;2023-02-01T15:17:40;5.00;99.90
67750;DHT22;54550;48.838;8.828;2023-02-01T15:20:19;5.10;99.90
67750;DHT22;54550;48.838;8.828;2023-02-01T15:23:16;4.90;99.90
67750;DHT22;54550;48.838;8.828;2023-02-01T15:25:45;4.80;99.90
67750;DHT22;54550;48.838;8.828;2023-02-01T15:28:13;4.70;99.90
67750;DHT22;54550;48.838;8.828;2023-02-01T15:30:40;4.60;99.90
67750;DHT22;54550;48.838;8.828;2023-02-01T15:33:17;4.50;99.90
67750;DHT22;54550;48.838;8.828;2023-02-01T15:35:54;4.50;99.90
67750;DHT22;54550;48.838;8.828;2023-02-01T15:43:32;4.30;99.90
67750;DHT22;54550;48.838;8.828;2023-02-01T15:46:01;4.30;99.90
67750;DHT22;54550;48.838;8.828;2023-02-01T15:48:39;4.10;99.90
67750;DHT22;54550;48.838;8.828;2023-02-01T15:51:12;4.20;99.90
67750;DHT22;54550;48.838;8.828;2023-02-01T15:53:44;4.10;99.90
67750;DHT22;54550;48.838;8.828;2023-02-01T15:56:11;4.00;99.90
67750;DHT22;54550;48.838;8.828;2023-02-01T15:58:36;4.00;99.90
67750;DHT22;54550;48.838;8.828;2023-02-01T16:01:10;4.20;99.90
67750;DHT22;54550;48.838;8.828;2023-02-01T16:03:39;4.10;99.90
67750;DHT22;54550;48.838;8.828;2023-02-01T16:06:30;4.10;99.90
67750;DHT22;54550;48.838;8.828;2023-02-01T16:09:03;4.10;99.90
67750;DHT22;54550;48.838;8.828;2023-02-01T16:11:42;4.20;99.90
67750;DHT22;54550;48.838;8.828;2023-02-01T16:14:11;4.10;99.90
67750;DHT22;54550;48.838;8.828;2023-02-01T16:16:37;4.10;99.90
67750;DHT22;54550;48.838;8.828;2023-02-01T16:19:03;4.10;99.90
67750;DHT22;54550;48.838;8.828;2023-02-01T16:21:28;4.10;99.90
67750;DHT22;54550;48.838;8.828;2023-02-01T16:23:54;4.10;99.90
67750;DHT22;54550;48.838;8.828;2023-02-01T16:26:20;4.20;99.90
67750;DHT22;54550;48.838;8.828;2023-02-01T16:28:46;4.20;99.90
67750;DHT22;54550;48.838;8.828;2023-02-01T16:31:14;4.10;99.90
67750;DHT22;54550;48.838;8.828;2023-02-01T16:33:46;4.10;99.90
67750;DHT22;54550;48.838;8.828;2023-02-01T16:36:12;4.00;99.90
67750;DHT22;54550;48.838;8.828;2023-02-01T16:38:38;4.00;99.90
67750;DHT22;54550;48.838;8.828;2023-02-01T16:41:04;3.90;99.90
67750;DHT22;54550;48.838;8.828;2023-02-01T16:43:31;3.80;99.90
67750;DHT22;54550;48.838;8.828;2023-02-01T16:46:00;3.80;99.90
67750;DHT22;54550;48.838;8.828;2023-02-01T16:48:29;3.70;99.90
67750;DHT22;54550;48.838;8.828;2023-02-01T16:51:04;3.80;99.90
67750;DHT22;54550;48.838;8.828;2023-02-01T16:53:32;3.90;99.90
67750;DHT22;54550;48.838;8.828;2023-02-01T16:55:59;3.80;99.90
67750;DHT22;54550;48.838;8.828;2023-02-01T16:58:26;3.80;99.90
67750;DHT22;54550;48.838;8.828;2023-02-01T17:00:52;3.80;99.90
67750;DHT22;54550;48.838;8.828;2023-02-01T17:03:18;3.80;99.90
67750;DHT22;54550;48.838;8.828;2023-02-01T17:05:47;3.70;99.90
67750;DHT22;54550;48.838;8.828;2023-02-01T17:08:17;3.70;99.90
67750;DHT22;54550;48.838;8.828;2023-02-01T17:10:44;3.80;99.90
67750;DHT22;54550;48.838;8.828;2023-02-01T17:13:15;3.90;99.90
67750;DHT22;54550;48.838;8.828;2023-02-01T17:15:50;4.00;99.90
67750;DHT22;54550;48.838;8.828;2023-02-01T17:18:17;4.00;99.90
67750;DHT22;54550;48.838;8.828;2023-02-01T17:20:43;4.10;99.90
67750;DHT22;54550;48.838;8.828;2023-02-01T17:23:09;4.00;99.90
67750;DHT22;54550;48.838;8.828;2023-02-01T17:25:36;4.00;99.90
67750;DHT22;54550;48.838;8.828;2023-02-01T17:28:01;3.80;99.90
67750;DHT22;54550;48.838;8.828;2023-02-01T17:30:27;3.80;99.90
67750;DHT22;54550;48.838;8.828;2023-02-01T17:32:53;3.70;99.90
67750;DHT22;54550;48.838;8.828;2023-02-01T17:35:23;3.80;99.90
67750;DHT22;54550;48.838;8.828;2023-02-01T17:37:50;3.80;99.90
67750;DHT22;54550;48.838;8.828;2023-02-01T17:40:17;3.70;99.90
67750;DHT22;54550;48.838;8.828;2023-02-01T17:42:43;3.60;99.90
67750;DHT22;54550;48.838;8.828;2023-02-01T17:45:34;3.60;99.90
67750;DHT22;54550;48.838;8.828;2023-02-01T17:48:04;3.60;99.90
67750;DHT22;54550;48.838;8.828;2023-02-01T17:50:31;3.70;99.90
67750;DHT22;54550;48.838;8.828;2023-02-01T17:52:59;3.70;99.90
67750;DHT22;54550;48.838;8.828;2023-02-01T17:55:26;3.70;99.90
67750;DHT22;54550;48.838;8.828;2023-02-01T17:57:51;3.90;99.90
67750;DHT22;54550;48.838;8.828;2023-02-01T18:00:20;3.80;99.90
67750;DHT22;54550;48.838;8.828;2023-02-01T18:02:46;3.80;99.90
67750;DHT22;54550;48.838;8.828;2023-02-01T18:05:22;3.90;99.90
67750;DHT22;54550;48.838;8.828;2023-02-01T18:07:48;4.00;99.90
67750;DHT22;54550;48.838;8.828;2023-02-01T18:10:14;4.00;99.90
67750;DHT22;54550;48.838;8.828;2023-02-01T18:12:39;3.90;99.90
67750;DHT22;54550;48.838;8.828;2023-02-01T18:15:20;3.80;99.90
67750;DHT22;54550;48.838;8.828;2023-02-01T18:17:46;3.80;99.90
67750;DHT22;54550;48.838;8.828;2023-02-01T18:20:21;3.80;99.90
67750;DHT22;54550;48.838;8.828;2023-02-01T18:22:47;3.80;99.90
67750;DHT22;54550;48.838;8.828;2023-02-01T18:25:23;4.00;99.90
67750;DHT22;54550;48.838;8.828;2023-02-01T18:27:51;4.10;99.90
67750;DHT22;54550;48.838;8.828;2023-02-01T18:30:18;4.10;99.90
67750;DHT22;54550;48.838;8.828;2023-02-01T18:32:43;4.10;99.90